createdAt,value
2023-04-23T00:06:13.120Z,9.25
2023-04-23T00:16:22.117Z,9.13
2023-04-23T00:26:27.972Z,9.03
2023-04-23T00:36:35.134Z,8.93
2023-04-23T00:56:49.842Z,8.89
2023-04-23T01:06:58.245Z,8.83
2023-04-23T01:17:06.144Z,8.73
2023-04-23T01:27:14.152Z,8.61
2023-04-23T01:37:22.263Z,8.54
2023-04-23T01:47:29.749Z,8.55
2023-04-23T01:57:36.957Z,8.59
2023-04-23T02:07:45.334Z,8.57
2023-04-23T02:17:52.628Z,8.56
2023-04-23T02:28:00.143Z,8.44
2023-04-23T02:38:08.136Z,8.31
2023-04-23T02:48:15.447Z,8.17
2023-04-23T02:58:22.477Z,8.06
2023-04-23T03:08:29.935Z,7.93
2023-04-23T03:18:36.982Z,7.79
2023-04-23T03:28:43.140Z,7.69
2023-04-23T03:38:50.759Z,7.74
2023-04-23T03:48:57.778Z,7.78
2023-04-23T03:59:04.266Z,7.86
2023-04-23T04:09:11.411Z,8.02
2023-04-23T04:19:18.948Z,8.17
2023-04-23T04:29:26.563Z,8.70
2023-04-23T04:39:33.537Z,9.70
2023-04-23T04:49:40.556Z,10.18
2023-04-23T04:59:48.056Z,10.99
2023-04-23T05:09:55.752Z,12.05
2023-04-23T05:20:02.319Z,12.79
2023-04-23T05:30:12.384Z,13.09
2023-04-23T05:40:19.615Z,14.11
2023-04-23T05:50:26.758Z,14.99
2023-04-23T06:00:35.665Z,15.83
2023-04-23T06:10:42.908Z,16.37
2023-04-23T06:20:48.824Z,17.25
2023-04-23T06:30:56.334Z,18.23
2023-04-23T06:41:04.173Z,18.64
2023-04-23T06:51:11.686Z,19.09
2023-04-23T07:01:23.461Z,19.80
2023-04-23T07:11:31.985Z,20.41
2023-04-23T07:21:39.001Z,20.70
2023-04-23T07:31:46.671Z,21.43
2023-04-23T07:41:54.706Z,21.79
2023-04-23T07:52:01.939Z,22.16
2023-04-23T08:02:10.234Z,22.25
2023-04-23T08:12:18.748Z,21.76
2023-04-23T08:22:26.233Z,22.09
2023-04-23T08:32:31.904Z,22.44
2023-04-23T08:42:38.800Z,21.90
2023-04-23T08:52:57.001Z,21.84
2023-04-23T09:03:05.364Z,22.00
2023-04-23T09:13:15.727Z,22.25
2023-04-23T09:23:24.655Z,22.57
2023-04-23T09:33:33.075Z,22.68
2023-04-23T09:43:42.682Z,22.83
2023-04-23T09:53:49.969Z,23.06
2023-04-23T10:03:56.895Z,22.64
2023-04-23T10:14:05.938Z,22.43
2023-04-23T10:24:14.878Z,22.28
2023-04-23T10:34:22.393Z,23.01
2023-04-23T10:44:50.366Z,22.77
2023-04-23T10:55:03.548Z,22.96
2023-04-23T11:05:10.951Z,23.21
2023-04-23T11:15:20.421Z,23.08
2023-04-23T11:25:30.722Z,23.25
2023-04-23T11:35:38.394Z,23.21
2023-04-23T11:45:46.358Z,23.32
2023-04-23T11:55:56.699Z,23.58
2023-04-23T12:06:03.081Z,23.42
2023-04-23T12:16:11.179Z,23.41
2023-04-23T12:26:21.538Z,23.55
2023-04-23T12:36:30.968Z,23.54
2023-04-23T12:46:38.382Z,23.27
2023-04-23T12:56:45.486Z,23.00
2023-04-23T13:06:52.696Z,22.99
2023-04-23T13:17:00.276Z,22.93
2023-04-23T13:27:07.856Z,22.58
2023-04-23T13:37:13.405Z,22.34
2023-04-23T13:47:20.818Z,22.46
2023-04-23T13:57:28.082Z,22.26
2023-04-23T14:07:35.500Z,22.71
2023-04-23T14:17:43.546Z,22.90
2023-04-23T14:27:56.824Z,23.19
2023-04-23T14:38:04.175Z,23.14
2023-04-23T14:48:11.974Z,22.90
2023-04-23T14:58:19.087Z,22.49
2023-04-23T15:08:26.840Z,22.32
2023-04-23T15:18:34.408Z,22.41
2023-04-23T15:38:47.837Z,21.60
2023-04-23T15:48:55.160Z,21.31
2023-04-23T15:59:02.488Z,21.20
2023-04-23T16:09:09.953Z,21.12
2023-04-23T16:19:18.118Z,20.95
2023-04-23T16:29:23.745Z,20.79
2023-04-23T16:39:30.065Z,20.48
2023-04-23T16:49:37.741Z,20.11
2023-04-23T16:59:44.896Z,19.71
2023-04-23T17:09:52.082Z,19.40
2023-04-23T17:19:59.360Z,19.17
2023-04-23T17:30:07.968Z,18.89
2023-04-23T17:40:12.645Z,18.56
2023-04-23T17:50:19.003Z,18.28
2023-04-23T18:00:24.132Z,17.91
2023-04-23T18:10:31.389Z,17.52
2023-04-23T18:20:39.224Z,17.08
2023-04-23T18:30:46.479Z,16.67
2023-04-23T18:40:54.189Z,16.25
2023-04-23T18:51:05.431Z,15.82
2023-04-23T19:01:12.694Z,15.35
2023-04-23T19:11:20.073Z,15.05
2023-04-23T19:21:27.920Z,14.84
2023-04-23T19:31:35.029Z,14.62
2023-04-23T19:41:42.413Z,14.44
2023-04-23T19:51:50.415Z,14.29
2023-04-23T20:01:56.433Z,14.25
2023-04-23T20:12:04.245Z,14.16
2023-04-23T20:32:18.515Z,13.74
2023-04-23T20:52:34.342Z,13.46
2023-04-23T21:02:42.218Z,13.57
2023-04-23T21:12:49.076Z,13.67
2023-04-23T21:22:55.274Z,13.59
2023-04-23T21:33:01.496Z,13.38
2023-04-23T21:43:09.952Z,13.18
2023-04-23T21:53:17.389Z,12.99
2023-04-23T22:03:37.965Z,12.86
2023-04-23T22:13:46.508Z,12.64
2023-04-23T22:23:53.550Z,12.50
2023-04-23T22:33:59.658Z,12.27
2023-04-23T22:44:07.103Z,12.31
2023-04-23T22:54:14.488Z,12.21
2023-04-23T23:04:21.593Z,12.23
2023-04-23T23:14:26.832Z,12.06
2023-04-23T23:24:35.450Z,11.87
2023-04-23T23:34:42.890Z,11.83
2023-04-23T23:44:50.187Z,11.76
2023-04-23T23:54:57.344Z,11.71
